sensor_id;sensor_type;location;lat;lon;timestamp;temperature;humidity
51615;DHT22;37695;52.960;6.188;2023-01-05T00:02:16;10.00;99.90
51615;DHT22;37695;52.960;6.188;2023-01-05T00:04:42;10.00;99.90
51615;DHT22;37695;52.960;6.188;2023-01-05T00:07:07;10.00;99.90
51615;DHT22;37695;52.960;6.188;2023-01-05T00:09:33;10.00;99.90
51615;DHT22;37695;52.960;6.188;2023-01-05T00:11:58;10.00;99.90
51615;DHT22;37695;52.960;6.188;2023-01-05T00:14:42;10.10;99.90
51615;DHT22;37695;52.960;6.188;2023-01-05T00:17:27;10.10;99.90
51615;DHT22;37695;52.960;6.188;2023-01-05T00:20:16;10.20;99.90
51615;DHT22;37695;52.960;6.188;2023-01-05T00:23:00;10.20;99.90
51615;DHT22;37695;52.960;6.188;2023-01-05T00:25:31;10.20;99.90
51615;DHT22;37695;52.960;6.188;2023-01-05T00:27:58;10.20;99.90
51615;DHT22;37695;52.960;6.188;2023-01-05T00:30:33;10.30;99.90
51615;DHT22;37695;52.960;6.188;2023-01-05T00:33:00;10.30;99.90
51615;DHT22;37695;52.960;6.188;2023-01-05T00:35:26;10.30;99.90
51615;DHT22;37695;52.960;6.188;2023-01-05T00:37:53;10.30;99.90
51615;DHT22;37695;52.960;6.188;2023-01-05T00:40:20;10.30;99.90
51615;DHT22;37695;52.960;6.188;2023-01-05T00:42:46;10.30;99.90
51615;DHT22;37695;52.960;6.188;2023-01-05T00:45:15;10.30;99.90
51615;DHT22;37695;52.960;6.188;2023-01-05T00:47:41;10.30;99.90
51615;DHT22;37695;52.960;6.188;2023-01-05T00:50:07;10.30;99.90
51615;DHT22;37695;52.960;6.188;2023-01-05T00:52:33;10.40;99.90
51615;DHT22;37695;52.960;6.188;2023-01-05T00:54:59;10.30;99.90
51615;DHT22;37695;52.960;6.188;2023-01-05T00:57:24;10.30;99.90
51615;DHT22;37695;52.960;6.188;2023-01-05T00:59:50;10.40;99.90
51615;DHT22;37695;52.960;6.188;2023-01-05T01:02:16;10.30;99.90
51615;DHT22;37695;52.960;6.188;2023-01-05T01:04:41;10.30;99.90
51615;DHT22;37695;52.960;6.188;2023-01-05T01:07:07;10.40;99.90
51615;DHT22;37695;52.960;6.188;2023-01-05T01:09:33;10.40;99.90
51615;DHT22;37695;52.960;6.188;2023-01-05T01:11:59;10.40;99.90
51615;DHT22;37695;52.960;6.188;2023-01-05T01:14:24;10.40;99.90
51615;DHT22;37695;52.960;6.188;2023-01-05T01:16:50;10.40;99.90
51615;DHT22;37695;52.960;6.188;2023-01-05T01:19:18;10.30;99.90
51615;DHT22;37695;52.960;6.188;2023-01-05T01:21:44;10.40;99.90
51615;DHT22;37695;52.960;6.188;2023-01-05T01:24:24;10.40;99.90
51615;DHT22;37695;52.960;6.188;2023-01-05T01:26:51;10.40;99.90
51615;DHT22;37695;52.960;6.188;2023-01-05T01:29:17;10.40;99.90
51615;DHT22;37695;52.960;6.188;2023-01-05T01:31:43;10.50;99.90
51615;DHT22;37695;52.960;6.188;2023-01-05T01:34:09;10.40;99.90
51615;DHT22;37695;52.960;6.188;2023-01-05T01:36:35;10.50;99.90
51615;DHT22;37695;52.960;6.188;2023-01-05T01:39:00;10.40;99.90
51615;DHT22;37695;52.960;6.188;2023-01-05T01:41:26;10.40;99.90
51615;DHT22;37695;52.960;6.188;2023-01-05T01:43:53;10.40;99.90
51615;DHT22;37695;52.960;6.188;2023-01-05T01:46:20;10.40;99.90
51615;DHT22;37695;52.960;6.188;2023-01-05T01:48:48;10.30;99.90
51615;DHT22;37695;52.960;6.188;2023-01-05T01:51:35;10.30;99.90
51615;DHT22;37695;52.960;6.188;2023-01-05T01:54:08;10.30;99.90
51615;DHT22;37695;52.960;6.188;2023-01-05T01:56:53;10.30;99.90
51615;DHT22;37695;52.960;6.188;2023-01-05T01:59:19;10.20;99.90
51615;DHT22;37695;52.960;6.188;2023-01-05T02:01:47;10.20;99.90
51615;DHT22;37695;52.960;6.188;2023-01-05T02:04:13;10.30;99.90
51615;DHT22;37695;52.960;6.188;2023-01-05T02:06:39;10.30;99.90
51615;DHT22;37695;52.960;6.188;2023-01-05T02:09:05;10.30;99.90
51615;DHT22;37695;52.960;6.188;2023-01-05T02:14:43;10.30;99.90
51615;DHT22;37695;52.960;6.188;2023-01-05T02:17:38;10.30;99.90
51615;DHT22;37695;52.960;6.188;2023-01-05T02:20:36;10.30;99.90
51615;DHT22;37695;52.960;6.188;2023-01-05T02:23:11;10.30;99.90
51615;DHT22;37695;52.960;6.188;2023-01-05T02:26:14;10.30;99.90
51615;DHT22;37695;52.960;6.188;2023-01-05T02:31:57;10.20;99.90
51615;DHT22;37695;52.960;6.188;2023-01-05T02:37:17;10.10;99.90
51615;DHT22;37695;52.960;6.188;2023-01-05T02:39:52;10.10;99.90
51615;DHT22;37695;52.960;6.188;2023-01-05T02:42:23;10.10;99.90
51615;DHT22;37695;52.960;6.188;2023-01-05T02:44:50;10.10;99.90
51615;DHT22;37695;52.960;6.188;2023-01-05T02:50:01;10.00;99.90
51615;DHT22;37695;52.960;6.188;2023-01-05T02:52:30;10.00;99.90
51615;DHT22;37695;52.960;6.188;2023-01-05T02:55:05;10.00;99.90
51615;DHT22;37695;52.960;6.188;2023-01-05T02:57:34;10.00;99.90
51615;DHT22;37695;52.960;6.188;2023-01-05T03:00:27;10.00;99.90
51615;DHT22;37695;52.960;6.188;2023-01-05T03:02:58;10.00;99.90
51615;DHT22;37695;52.960;6.188;2023-01-05T03:05:44;10.00;99.90
51615;DHT22;37695;52.960;6.188;2023-01-05T03:08:13;10.00;99.90
51615;DHT22;37695;52.960;6.188;2023-01-05T03:11:03;9.90;99.90
51615;DHT22;37695;52.960;6.188;2023-01-05T03:16:43;10.00;99.90
51615;DHT22;37695;52.960;6.188;2023-01-05T03:19:12;10.00;99.90
51615;DHT22;37695;52.960;6.188;2023-01-05T03:22:02;10.00;99.90
51615;DHT22;37695;52.960;6.188;2023-01-05T03:24:47;10.00;99.90
51615;DHT22;37695;52.960;6.188;2023-01-05T03:27:34;10.00;99.90
51615;DHT22;37695;52.960;6.188;2023-01-05T03:30:21;10.10;99.90
51615;DHT22;37695;52.960;6.188;2023-01-05T03:33:47;10.00;99.90
51615;DHT22;37695;52.960;6.188;2023-01-05T03:36:26;10.10;99.90
51615;DHT22;37695;52.960;6.188;2023-01-05T03:38:55;10.00;99.90
51615;DHT22;37695;52.960;6.188;2023-01-05T03:41:22;10.00;99.90
51615;DHT22;37695;52.960;6.188;2023-01-05T03:43:49;10.00;99.90
51615;DHT22;37695;52.960;6.188;2023-01-05T03:46:19;10.00;99.90
51615;DHT22;37695;52.960;6.188;2023-01-05T03:48:46;10.00;99.90
51615;DHT22;37695;52.960;6.188;2023-01-05T03:51:13;10.00;99.90
51615;DHT22;37695;52.960;6.188;2023-01-05T03:53:39;10.00;99.90
51615;DHT22;37695;52.960;6.188;2023-01-05T03:56:05;10.00;99.90
51615;DHT22;37695;52.960;6.188;2023-01-05T03:58:31;10.00;99.90
51615;DHT22;37695;52.960;6.188;2023-01-05T04:00:56;10.00;99.90
51615;DHT22;37695;52.960;6.188;2023-01-05T04:03:22;10.00;99.90
51615;DHT22;37695;52.960;6.188;2023-01-05T04:05:47;10.10;99.90
51615;DHT22;37695;52.960;6.188;2023-01-05T04:08:13;10.10;99.90
51615;DHT22;37695;52.960;6.188;2023-01-05T04:10:38;10.10;99.90
51615;DHT22;37695;52.960;6.188;2023-01-05T04:13:04;10.10;99.90
51615;DHT22;37695;52.960;6.188;2023-01-05T04:15:29;10.10;99.90
51615;DHT22;37695;52.960;6.188;2023-01-05T04:17:55;10.10;99.90
51615;DHT22;37695;52.960;6.188;2023-01-05T04:20:21;10.10;99.90
51615;DHT22;37695;52.960;6.188;2023-01-05T04:22:46;10.10;99.90
51615;DHT22;37695;52.960;6.188;2023-01-05T04:25:12;10.10;99.90
51615;DHT22;37695;52.960;6.188;2023-01-05T04:27:37;10.10;99.90
51615;DHT22;37695;52.960;6.188;2023-01-05T04:30:04;10.10;99.90
51615;DHT22;37695;52.960;6.188;2023-01-05T04:32:29;10.10;99.90
51615;DHT22;37695;52.960;6.188;2023-01-05T04:34:55;10.10;99.90
51615;DHT22;37695;52.960;6.188;2023-01-05T04:37:20;10.10;99.90
51615;DHT22;37695;52.960;6.188;2023-01-05T04:39:46;10.10;99.90
51615;DHT22;37695;52.960;6.188;2023-01-05T04:42:12;10.00;99.90
51615;DHT22;37695;52.960;6.188;2023-01-05T04:44:37;10.00;99.90
51615;DHT22;37695;52.960;6.188;2023-01-05T04:47:03;10.00;99.90
51615;DHT22;37695;52.960;6.188;2023-01-05T04:49:28;10.00;99.90
51615;DHT22;37695;52.960;6.188;2023-01-05T04:51:54;10.00;99.90
51615;DHT22;37695;52.960;6.188;2023-01-05T04:54:19;10.00;99.90
51615;DHT22;37695;52.960;6.188;2023-01-05T04:56:45;10.00;99.90
51615;DHT22;37695;52.960;6.188;2023-01-05T04:59:10;10.00;99.90
51615;DHT22;37695;52.960;6.188;2023-01-05T05:01:36;10.00;99.90
51615;DHT22;37695;52.960;6.188;2023-01-05T05:04:01;10.00;99.90
51615;DHT22;37695;52.960;6.188;2023-01-05T05:06:27;10.00;99.90
51615;DHT22;37695;52.960;6.188;2023-01-05T05:08:53;10.00;99.90
51615;DHT22;37695;52.960;6.188;2023-01-05T05:11:18;10.00;99.90
51615;DHT22;37695;52.960;6.188;2023-01-05T05:13:44;10.00;99.90
51615;DHT22;37695;52.960;6.188;2023-01-05T05:16:09;10.00;99.90
51615;DHT22;37695;52.960;6.188;2023-01-05T05:18:35;10.00;99.90
51615;DHT22;37695;52.960;6.188;2023-01-05T05:21:00;10.00;99.90
51615;DHT22;37695;52.960;6.188;2023-01-05T05:23:26;10.00;99.90
51615;DHT22;37695;52.960;6.188;2023-01-05T05:25:52;10.10;99.90
51615;DHT22;37695;52.960;6.188;2023-01-05T05:28:18;10.00;99.90
51615;DHT22;37695;52.960;6.188;2023-01-05T05:30:44;10.00;99.90
51615;DHT22;37695;52.960;6.188;2023-01-05T05:33:10;10.10;99.90
51615;DHT22;37695;52.960;6.188;2023-01-05T05:35:35;10.00;99.90
51615;DHT22;37695;52.960;6.188;2023-01-05T05:38:01;10.00;99.90
51615;DHT22;37695;52.960;6.188;2023-01-05T05:40:26;10.00;99.90
51615;DHT22;37695;52.960;6.188;2023-01-05T05:42:53;10.00;99.90
51615;DHT22;37695;52.960;6.188;2023-01-05T05:45:19;10.30;99.90
51615;DHT22;37695;52.960;6.188;2023-01-05T05:47:44;10.00;99.90
51615;DHT22;37695;52.960;6.188;2023-01-05T05:50:10;10.00;99.90
51615;DHT22;37695;52.960;6.188;2023-01-05T05:52:35;10.00;99.90
51615;DHT22;37695;52.960;6.188;2023-01-05T05:55:01;9.90;99.90
51615;DHT22;37695;52.960;6.188;2023-01-05T05:57:26;10.00;99.90
51615;DHT22;37695;52.960;6.188;2023-01-05T05:59:52;10.00;99.90
51615;DHT22;37695;52.960;6.188;2023-01-05T06:02:17;10.00;99.90
51615;DHT22;37695;52.960;6.188;2023-01-05T06:04:44;10.00;99.90
51615;DHT22;37695;52.960;6.188;2023-01-05T06:07:10;10.00;99.90
51615;DHT22;37695;52.960;6.188;2023-01-05T06:09:35;10.00;99.90
51615;DHT22;37695;52.960;6.188;2023-01-05T06:12:01;10.00;99.90
51615;DHT22;37695;52.960;6.188;2023-01-05T06:14:26;9.90;99.90
51615;DHT22;37695;52.960;6.188;2023-01-05T06:16:52;9.90;99.90
51615;DHT22;37695;52.960;6.188;2023-01-05T06:19:18;9.90;99.90
51615;DHT22;37695;52.960;6.188;2023-01-05T06:21:43;9.80;99.90
51615;DHT22;37695;52.960;6.188;2023-01-05T06:24:09;9.50;99.90
51615;DHT22;37695;52.960;6.188;2023-01-05T06:26:34;9.80;99.90
51615;DHT22;37695;52.960;6.188;2023-01-05T06:29:00;9.90;99.90
51615;DHT22;37695;52.960;6.188;2023-01-05T06:31:25;9.90;99.90
51615;DHT22;37695;52.960;6.188;2023-01-05T06:33:52;9.80;99.90
51615;DHT22;37695;52.960;6.188;2023-01-05T06:36:17;9.90;99.90
51615;DHT22;37695;52.960;6.188;2023-01-05T06:38:43;9.90;99.90
51615;DHT22;37695;52.960;6.188;2023-01-05T06:41:09;9.90;99.90
51615;DHT22;37695;52.960;6.188;2023-01-05T06:43:34;9.90;99.90
51615;DHT22;37695;52.960;6.188;2023-01-05T06:46:00;10.90;99.90
51615;DHT22;37695;52.960;6.188;2023-01-05T06:48:25;10.00;99.90
51615;DHT22;37695;52.960;6.188;2023-01-05T06:50:51;10.00;99.90
51615;DHT22;37695;52.960;6.188;2023-01-05T06:53:17;10.00;99.90
51615;DHT22;37695;52.960;6.188;2023-01-05T06:55:43;10.00;99.90
51615;DHT22;37695;52.960;6.188;2023-01-05T06:58:09;10.00;99.90
51615;DHT22;37695;52.960;6.188;2023-01-05T07:00:34;10.00;99.90
51615;DHT22;37695;52.960;6.188;2023-01-05T07:03:00;10.00;99.90
51615;DHT22;37695;52.960;6.188;2023-01-05T07:05:25;10.00;99.90
51615;DHT22;37695;52.960;6.188;2023-01-05T07:07:51;10.00;99.90
51615;DHT22;37695;52.960;6.188;2023-01-05T07:10:17;10.10;99.90
51615;DHT22;37695;52.960;6.188;2023-01-05T07:12:42;10.10;99.90
51615;DHT22;37695;52.960;6.188;2023-01-05T07:15:08;10.10;99.90
51615;DHT22;37695;52.960;6.188;2023-01-05T07:17:34;10.10;99.90
51615;DHT22;37695;52.960;6.188;2023-01-05T07:20:01;10.10;99.90
51615;DHT22;37695;52.960;6.188;2023-01-05T07:22:27;10.00;99.90
51615;DHT22;37695;52.960;6.188;2023-01-05T07:24:57;10.10;99.90
51615;DHT22;37695;52.960;6.188;2023-01-05T07:27:24;10.10;99.90
51615;DHT22;37695;52.960;6.188;2023-01-05T07:29:49;10.00;99.90
51615;DHT22;37695;52.960;6.188;2023-01-05T07:32:15;10.00;99.90
51615;DHT22;37695;52.960;6.188;2023-01-05T07:34:40;9.90;99.90
51615;DHT22;37695;52.960;6.188;2023-01-05T07:37:06;9.90;99.90
51615;DHT22;37695;52.960;6.188;2023-01-05T07:39:31;9.90;99.90
51615;DHT22;37695;52.960;6.188;2023-01-05T07:41:57;9.90;99.90
51615;DHT22;37695;52.960;6.188;2023-01-05T07:44:23;9.90;99.90
51615;DHT22;37695;52.960;6.188;2023-01-05T07:46:48;9.90;99.90
51615;DHT22;37695;52.960;6.188;2023-01-05T07:49:14;9.80;99.90
51615;DHT22;37695;52.960;6.188;2023-01-05T07:51:40;9.80;99.90
51615;DHT22;37695;52.960;6.188;2023-01-05T07:54:05;9.80;99.90
51615;DHT22;37695;52.960;6.188;2023-01-05T07:56:31;9.80;99.90
51615;DHT22;37695;52.960;6.188;2023-01-05T07:58:58;9.80;99.90
51615;DHT22;37695;52.960;6.188;2023-01-05T08:01:23;9.80;99.90
51615;DHT22;37695;52.960;6.188;2023-01-05T08:03:49;9.90;99.90
51615;DHT22;37695;52.960;6.188;2023-01-05T08:06:17;9.80;99.90
51615;DHT22;37695;52.960;6.188;2023-01-05T08:08:43;9.80;99.90
51615;DHT22;37695;52.960;6.188;2023-01-05T08:11:11;9.90;99.90
51615;DHT22;37695;52.960;6.188;2023-01-05T08:13:40;9.90;99.90
51615;DHT22;37695;52.960;6.188;2023-01-05T08:16:24;9.90;99.90
51615;DHT22;37695;52.960;6.188;2023-01-05T08:18:49;9.80;99.90
51615;DHT22;37695;52.960;6.188;2023-01-05T08:21:15;9.90;99.90
51615;DHT22;37695;52.960;6.188;2023-01-05T08:23:41;9.90;99.90
51615;DHT22;37695;52.960;6.188;2023-01-05T08:26:12;9.90;99.90
51615;DHT22;37695;52.960;6.188;2023-01-05T08:28:39;9.90;99.90
51615;DHT22;37695;52.960;6.188;2023-01-05T08:31:12;9.90;99.90
51615;DHT22;37695;52.960;6.188;2023-01-05T08:33:38;9.90;99.90
51615;DHT22;37695;52.960;6.188;2023-01-05T08:36:08;9.90;99.90
51615;DHT22;37695;52.960;6.188;2023-01-05T08:38:34;10.00;99.90
51615;DHT22;37695;52.960;6.188;2023-01-05T08:41:00;10.00;99.90
51615;DHT22;37695;52.960;6.188;2023-01-05T08:43:26;10.00;99.90
51615;DHT22;37695;52.960;6.188;2023-01-05T08:45:51;10.00;99.90
51615;DHT22;37695;52.960;6.188;2023-01-05T08:48:17;9.90;99.90
51615;DHT22;37695;52.960;6.188;2023-01-05T08:50:43;10.00;99.90
51615;DHT22;37695;52.960;6.188;2023-01-05T08:53:09;10.00;99.90
51615;DHT22;37695;52.960;6.188;2023-01-05T08:55:34;10.00;99.90
51615;DHT22;37695;52.960;6.188;2023-01-05T08:58:00;10.00;99.90
51615;DHT22;37695;52.960;6.188;2023-01-05T09:00:25;10.00;99.90
51615;DHT22;37695;52.960;6.188;2023-01-05T09:02:51;10.00;99.90
51615;DHT22;37695;52.960;6.188;2023-01-05T09:05:16;10.00;99.90
51615;DHT22;37695;52.960;6.188;2023-01-05T09:07:42;10.00;99.90
51615;DHT22;37695;52.960;6.188;2023-01-05T09:10:09;10.00;99.90
51615;DHT22;37695;52.960;6.188;2023-01-05T09:12:36;10.00;99.90
51615;DHT22;37695;52.960;6.188;2023-01-05T09:15:02;10.10;99.90
51615;DHT22;37695;52.960;6.188;2023-01-05T09:17:28;10.10;99.90
51615;DHT22;37695;52.960;6.188;2023-01-05T09:19:54;10.10;99.90
51615;DHT22;37695;52.960;6.188;2023-01-05T09:22:19;10.10;99.90
51615;DHT22;37695;52.960;6.188;2023-01-05T09:24:45;10.10;99.90
51615;DHT22;37695;52.960;6.188;2023-01-05T09:27:11;10.10;99.90
51615;DHT22;37695;52.960;6.188;2023-01-05T09:29:37;10.10;99.90
51615;DHT22;37695;52.960;6.188;2023-01-05T09:32:02;10.10;99.90
51615;DHT22;37695;52.960;6.188;2023-01-05T09:34:29;10.10;99.90
51615;DHT22;37695;52.960;6.188;2023-01-05T09:36:55;10.10;99.90
51615;DHT22;37695;52.960;6.188;2023-01-05T09:39:20;10.10;99.90
51615;DHT22;37695;52.960;6.188;2023-01-05T09:41:53;10.10;99.90
51615;DHT22;37695;52.960;6.188;2023-01-05T09:46:50;10.10;99.90
51615;DHT22;37695;52.960;6.188;2023-01-05T09:49:20;10.10;99.90
51615;DHT22;37695;52.960;6.188;2023-01-05T09:51:48;10.10;99.90
51615;DHT22;37695;52.960;6.188;2023-01-05T09:54:17;10.00;99.90
51615;DHT22;37695;52.960;6.188;2023-01-05T09:56:45;10.00;99.90
51615;DHT22;37695;52.960;6.188;2023-01-05T10:01:49;10.00;99.90
51615;DHT22;37695;52.960;6.188;2023-01-05T10:04:17;10.00;99.90
51615;DHT22;37695;52.960;6.188;2023-01-05T10:06:48;10.00;99.90
51615;DHT22;37695;52.960;6.188;2023-01-05T10:09:34;10.10;99.90
51615;DHT22;37695;52.960;6.188;2023-01-05T10:17:43;10.10;99.90
51615;DHT22;37695;52.960;6.188;2023-01-05T10:20:27;10.10;99.90
51615;DHT22;37695;52.960;6.188;2023-01-05T10:23:19;10.10;99.90
51615;DHT22;37695;52.960;6.188;2023-01-05T10:31:23;10.20;99.90
51615;DHT22;37695;52.960;6.188;2023-01-05T10:42:45;10.30;99.90
51615;DHT22;37695;52.960;6.188;2023-01-05T10:45:13;10.30;99.90
51615;DHT22;37695;52.960;6.188;2023-01-05T10:47:41;10.30;99.90
51615;DHT22;37695;52.960;6.188;2023-01-05T10:52:56;10.40;99.90
51615;DHT22;37695;52.960;6.188;2023-01-05T10:55:23;10.40;99.90
51615;DHT22;37695;52.960;6.188;2023-01-05T10:57:49;10.50;99.90
51615;DHT22;37695;52.960;6.188;2023-01-05T11:00:18;10.40;99.90
51615;DHT22;37695;52.960;6.188;2023-01-05T11:03:01;10.40;99.90
51615;DHT22;37695;52.960;6.188;2023-01-05T11:05:41;10.40;99.90
51615;DHT22;37695;52.960;6.188;2023-01-05T11:08:21;10.40;99.90
51615;DHT22;37695;52.960;6.188;2023-01-05T11:11:01;10.50;99.90
51615;DHT22;37695;52.960;6.188;2023-01-05T11:13:36;10.50;99.90
51615;DHT22;37695;52.960;6.188;2023-01-05T11:16:13;10.60;99.90
51615;DHT22;37695;52.960;6.188;2023-01-05T11:18:56;10.60;99.90
51615;DHT22;37695;52.960;6.188;2023-01-05T11:21:27;10.60;99.90
51615;DHT22;37695;52.960;6.188;2023-01-05T11:23:58;10.60;99.90
51615;DHT22;37695;52.960;6.188;2023-01-05T11:31:42;10.60;99.90
51615;DHT22;37695;52.960;6.188;2023-01-05T11:34:25;10.70;99.90
51615;DHT22;37695;52.960;6.188;2023-01-05T11:36:56;10.70;99.90
51615;DHT22;37695;52.960;6.188;2023-01-05T11:39:39;10.60;99.90
51615;DHT22;37695;52.960;6.188;2023-01-05T11:44:47;10.60;99.90
51615;DHT22;37695;52.960;6.188;2023-01-05T11:47:39;10.50;99.90
51615;DHT22;37695;52.960;6.188;2023-01-05T11:50:17;10.50;99.90
51615;DHT22;37695;52.960;6.188;2023-01-05T11:52:45;10.50;99.90
51615;DHT22;37695;52.960;6.188;2023-01-05T11:57:50;10.50;99.90
51615;DHT22;37695;52.960;6.188;2023-01-05T12:05:56;10.50;99.90
51615;DHT22;37695;52.960;6.188;2023-01-05T12:08:29;10.50;99.90
51615;DHT22;37695;52.960;6.188;2023-01-05T12:11:08;10.50;99.90
51615;DHT22;37695;52.960;6.188;2023-01-05T12:13:57;10.60;99.90
51615;DHT22;37695;52.960;6.188;2023-01-05T12:24:49;10.50;99.90
51615;DHT22;37695;52.960;6.188;2023-01-05T12:27:26;10.50;99.90
51615;DHT22;37695;52.960;6.188;2023-01-05T12:30:32;10.60;99.90
51615;DHT22;37695;52.960;6.188;2023-01-05T12:35:54;10.60;99.90
51615;DHT22;37695;52.960;6.188;2023-01-05T12:38:28;10.60;99.90
51615;DHT22;37695;52.960;6.188;2023-01-05T12:52:39;10.70;99.90
51615;DHT22;37695;52.960;6.188;2023-01-05T12:55:16;10.70;99.90
51615;DHT22;37695;52.960;6.188;2023-01-05T12:57:45;10.70;99.90
51615;DHT22;37695;52.960;6.188;2023-01-05T13:00:20;10.70;99.90
51615;DHT22;37695;52.960;6.188;2023-01-05T13:05:21;10.70;99.90
51615;DHT22;37695;52.960;6.188;2023-01-05T13:10:27;10.80;99.90
51615;DHT22;37695;52.960;6.188;2023-01-05T13:12:57;10.70;99.90
51615;DHT22;37695;52.960;6.188;2023-01-05T13:15:30;10.70;99.90
51615;DHT22;37695;52.960;6.188;2023-01-05T13:18:00;10.70;99.90
51615;DHT22;37695;52.960;6.188;2023-01-05T13:21:09;10.60;99.90
51615;DHT22;37695;52.960;6.188;2023-01-05T13:23:41;10.60;99.90
51615;DHT22;37695;52.960;6.188;2023-01-05T13:26:15;10.60;99.90
51615;DHT22;37695;52.960;6.188;2023-01-05T13:28:41;10.50;99.90
51615;DHT22;37695;52.960;6.188;2023-01-05T13:34:04;10.50;99.90
51615;DHT22;37695;52.960;6.188;2023-01-05T13:36:53;10.50;99.90
51615;DHT22;37695;52.960;6.188;2023-01-05T13:53:40;10.50;99.90
51615;DHT22;37695;52.960;6.188;2023-01-05T13:56:26;10.50;99.90
51615;DHT22;37695;52.960;6.188;2023-01-05T13:59:07;10.50;99.90
51615;DHT22;37695;52.960;6.188;2023-01-05T14:01:41;10.50;99.90
51615;DHT22;37695;52.960;6.188;2023-01-05T14:04:22;10.50;99.90
51615;DHT22;37695;52.960;6.188;2023-01-05T14:06:52;10.50;99.90
51615;DHT22;37695;52.960;6.188;2023-01-05T14:09:32;10.60;99.90
51615;DHT22;37695;52.960;6.188;2023-01-05T14:14:57;10.60;99.90
51615;DHT22;37695;52.960;6.188;2023-01-05T14:20:40;10.70;99.90
51615;DHT22;37695;52.960;6.188;2023-01-05T14:36:41;10.60;99.90
51615;DHT22;37695;52.960;6.188;2023-01-05T14:41:42;10.50;99.90
51615;DHT22;37695;52.960;6.188;2023-01-05T14:44:27;10.50;99.90
51615;DHT22;37695;52.960;6.188;2023-01-05T14:46:55;10.40;99.90
51615;DHT22;37695;52.960;6.188;2023-01-05T14:49:38;10.50;99.90
51615;DHT22;37695;52.960;6.188;2023-01-05T14:52:13;10.40;99.90
51615;DHT22;37695;52.960;6.188;2023-01-05T15:02:57;10.30;99.90
51615;DHT22;37695;52.960;6.188;2023-01-05T15:05:25;10.30;99.90
51615;DHT22;37695;52.960;6.188;2023-01-05T15:08:12;10.30;99.90
51615;DHT22;37695;52.960;6.188;2023-01-05T15:11:23;10.30;99.90
51615;DHT22;37695;52.960;6.188;2023-01-05T15:14:24;10.30;99.90
51615;DHT22;37695;52.960;6.188;2023-01-05T15:17:32;10.20;99.90
51615;DHT22;37695;52.960;6.188;2023-01-05T15:25:37;10.10;99.90
51615;DHT22;37695;52.960;6.188;2023-01-05T15:33:49;10.10;99.90
51615;DHT22;37695;52.960;6.188;2023-01-05T15:36:45;10.10;99.90
51615;DHT22;37695;52.960;6.188;2023-01-05T15:39:31;10.00;99.90
51615;DHT22;37695;52.960;6.188;2023-01-05T15:42:00;10.00;99.90
51615;DHT22;37695;52.960;6.188;2023-01-05T15:44:33;10.10;99.90
51615;DHT22;37695;52.960;6.188;2023-01-05T15:47:01;10.00;99.90
51615;DHT22;37695;52.960;6.188;2023-01-05T15:49:30;10.00;99.90
51615;DHT22;37695;52.960;6.188;2023-01-05T15:51:56;10.00;99.90
51615;DHT22;37695;52.960;6.188;2023-01-05T15:54:27;10.00;99.90
51615;DHT22;37695;52.960;6.188;2023-01-05T15:56:54;9.90;99.90
51615;DHT22;37695;52.960;6.188;2023-01-05T15:59:27;9.90;99.90
51615;DHT22;37695;52.960;6.188;2023-01-05T16:01:53;9.80;99.90
51615;DHT22;37695;52.960;6.188;2023-01-05T16:04:19;9.80;99.90
51615;DHT22;37695;52.960;6.188;2023-01-05T16:06:46;9.70;99.90
51615;DHT22;37695;52.960;6.188;2023-01-05T16:09:22;9.70;99.90
51615;DHT22;37695;52.960;6.188;2023-01-05T16:11:50;9.70;99.90
51615;DHT22;37695;52.960;6.188;2023-01-05T16:14:23;9.70;99.90
51615;DHT22;37695;52.960;6.188;2023-01-05T16:17:01;9.70;99.90
51615;DHT22;37695;52.960;6.188;2023-01-05T16:22:02;9.60;99.90
51615;DHT22;37695;52.960;6.188;2023-01-05T16:24:42;9.60;99.90
51615;DHT22;37695;52.960;6.188;2023-01-05T16:27:11;9.60;99.90
51615;DHT22;37695;52.960;6.188;2023-01-05T16:29:43;9.60;99.90
51615;DHT22;37695;52.960;6.188;2023-01-05T16:35:18;9.60;99.90
51615;DHT22;37695;52.960;6.188;2023-01-05T16:37:44;9.50;99.90
51615;DHT22;37695;52.960;6.188;2023-01-05T16:40:19;9.50;99.90
51615;DHT22;37695;52.960;6.188;2023-01-05T16:42:47;9.50;99.90
51615;DHT22;37695;52.960;6.188;2023-01-05T16:45:26;9.50;99.90
51615;DHT22;37695;52.960;6.188;2023-01-05T16:47:54;9.50;99.90
51615;DHT22;37695;52.960;6.188;2023-01-05T16:53:09;9.50;99.90
51615;DHT22;37695;52.960;6.188;2023-01-05T16:55:36;9.50;99.90
51615;DHT22;37695;52.960;6.188;2023-01-05T17:00:50;9.60;99.90
51615;DHT22;37695;52.960;6.188;2023-01-05T17:03:26;9.60;99.90
51615;DHT22;37695;52.960;6.188;2023-01-05T17:05:53;9.60;99.90
51615;DHT22;37695;52.960;6.188;2023-01-05T17:08:21;9.60;99.90
51615;DHT22;37695;52.960;6.188;2023-01-05T17:10:47;9.60;99.90
51615;DHT22;37695;52.960;6.188;2023-01-05T17:13:19;9.60;99.90
51615;DHT22;37695;52.960;6.188;2023-01-05T17:15:47;9.60;99.90
51615;DHT22;37695;52.960;6.188;2023-01-05T17:18:23;9.70;99.90
51615;DHT22;37695;52.960;6.188;2023-01-05T17:20:51;9.60;99.90
51615;DHT22;37695;52.960;6.188;2023-01-05T17:23:30;9.60;99.90
51615;DHT22;37695;52.960;6.188;2023-01-05T17:26:00;9.70;99.90
51615;DHT22;37695;52.960;6.188;2023-01-05T17:28:26;9.70;99.90
51615;DHT22;37695;52.960;6.188;2023-01-05T17:30:52;9.70;99.90
51615;DHT22;37695;52.960;6.188;2023-01-05T17:33:18;9.70;99.90
51615;DHT22;37695;52.960;6.188;2023-01-05T17:35:44;9.70;99.90
51615;DHT22;37695;52.960;6.188;2023-01-05T17:38:11;9.70;99.90
51615;DHT22;37695;52.960;6.188;2023-01-05T17:40:37;9.60;99.90
51615;DHT22;37695;52.960;6.188;2023-01-05T17:43:04;9.60;99.90
51615;DHT22;37695;52.960;6.188;2023-01-05T17:45:29;9.60;99.90
51615;DHT22;37695;52.960;6.188;2023-01-05T17:47:55;9.60;99.90
51615;DHT22;37695;52.960;6.188;2023-01-05T17:50:26;9.60;99.90
51615;DHT22;37695;52.960;6.188;2023-01-05T17:52:53;9.60;99.90
51615;DHT22;37695;52.960;6.188;2023-01-05T17:55:20;9.60;99.90
51615;DHT22;37695;52.960;6.188;2023-01-05T17:57:46;9.60;99.90
51615;DHT22;37695;52.960;6.188;2023-01-05T18:00:13;9.60;99.90
51615;DHT22;37695;52.960;6.188;2023-01-05T18:02:40;9.60;99.90
51615;DHT22;37695;52.960;6.188;2023-01-05T18:05:06;9.60;99.90
51615;DHT22;37695;52.960;6.188;2023-01-05T18:07:32;9.60;99.90
51615;DHT22;37695;52.960;6.188;2023-01-05T18:09:58;9.60;99.90
51615;DHT22;37695;52.960;6.188;2023-01-05T18:12:25;9.60;99.90
51615;DHT22;37695;52.960;6.188;2023-01-05T18:14:51;9.60;99.90
51615;DHT22;37695;52.960;6.188;2023-01-05T18:17:18;9.60;99.90
51615;DHT22;37695;52.960;6.188;2023-01-05T18:19:43;9.50;99.90
51615;DHT22;37695;52.960;6.188;2023-01-05T18:22:10;9.50;99.90
51615;DHT22;37695;52.960;6.188;2023-01-05T18:24:37;9.50;99.90
51615;DHT22;37695;52.960;6.188;2023-01-05T18:27:03;9.60;99.90
51615;DHT22;37695;52.960;6.188;2023-01-05T18:29:32;9.50;99.90
51615;DHT22;37695;52.960;6.188;2023-01-05T18:31:58;9.50;99.90